createdAt,value
2017-12-25T00:02:08.859Z,8.10
2017-12-25T00:04:35.118Z,10.53
2017-12-25T00:07:02.185Z,4.70
2017-12-25T00:09:28.436Z,7.37
2017-12-25T00:11:55.458Z,4.70
2017-12-25T00:14:21.691Z,6.47
2017-12-25T00:16:47.957Z,6.00
2017-12-25T00:19:14.208Z,7.13
2017-12-25T00:21:40.492Z,8.07
2017-12-25T00:24:07.512Z,8.53
2017-12-25T00:26:33.778Z,5.90
2017-12-25T00:29:00.321Z,4.47
2017-12-25T00:31:26.819Z,6.73
2017-12-25T00:33:53.061Z,7.73
2017-12-25T00:36:19.313Z,5.73
2017-12-25T00:38:45.601Z,6.30
2017-12-25T00:41:12.671Z,7.20
2017-12-25T00:43:39.680Z,7.37
2017-12-25T00:46:05.929Z,6.33
2017-12-25T00:48:32.179Z,4.80
2017-12-25T00:50:59.155Z,6.97
2017-12-25T00:53:25.428Z,3.53
2017-12-25T00:55:51.664Z,5.43
2017-12-25T00:58:17.906Z,3.90
2017-12-25T01:00:44.870Z,5.13
2017-12-25T01:03:11.198Z,4.17
2017-12-25T01:05:37.613Z,6.00
2017-12-25T01:08:04.687Z,5.90
2017-12-25T01:10:30.976Z,6.77
2017-12-25T01:12:57.264Z,7.23
2017-12-25T01:15:23.512Z,5.73
2017-12-25T01:17:49.770Z,6.50
2017-12-25T01:20:16.020Z,5.00
2017-12-25T01:22:43.022Z,5.07
2017-12-25T01:25:09.401Z,6.33
2017-12-25T01:27:36.386Z,3.60
2017-12-25T01:30:02.643Z,5.50
2017-12-25T01:32:28.904Z,4.80
2017-12-25T01:34:55.989Z,4.50
2017-12-25T01:37:22.236Z,4.10
2017-12-25T01:39:49.239Z,3.93
2017-12-25T01:42:16.237Z,4.77
2017-12-25T01:44:42.516Z,5.53
2017-12-25T01:47:08.766Z,5.43
2017-12-25T01:49:35.025Z,3.30
2017-12-25T01:52:01.311Z,6.00
2017-12-25T01:54:28.572Z,4.63
2017-12-25T01:57:02.456Z,3.93
2017-12-25T01:59:29.688Z,5.20
2017-12-25T02:02:01.732Z,4.77
2017-12-25T02:04:43.787Z,3.43
2017-12-25T02:07:22.239Z,5.73
2017-12-25T02:09:48.492Z,4.13
2017-12-25T02:12:14.733Z,3.67
2017-12-25T02:14:41.006Z,3.73
2017-12-25T02:17:07.344Z,3.53
2017-12-25T02:19:33.636Z,2.83
2017-12-25T02:21:59.869Z,4.70
2017-12-25T02:24:26.127Z,4.33
2017-12-25T02:26:52.431Z,3.50
2017-12-25T02:29:18.689Z,3.20
2017-12-25T02:31:44.951Z,3.40
2017-12-25T02:34:11.948Z,3.27
2017-12-25T02:36:38.331Z,2.90
2017-12-25T02:39:04.667Z,3.53
2017-12-25T02:41:31.644Z,4.43
2017-12-25T02:43:57.899Z,3.33
2017-12-25T02:46:24.151Z,3.90
2017-12-25T02:48:50.414Z,5.10
2017-12-25T02:51:17.443Z,4.03
2017-12-25T02:53:44.441Z,5.43
2017-12-25T02:56:10.712Z,4.97
2017-12-25T02:58:37.009Z,4.07
2017-12-25T03:01:03.243Z,5.00
2017-12-25T03:03:29.467Z,4.00
2017-12-25T03:05:55.720Z,3.70
2017-12-25T03:08:21.992Z,6.03
2017-12-25T03:10:48.227Z,5.97
2017-12-25T03:13:14.497Z,5.53
2017-12-25T03:15:40.734Z,5.93
2017-12-25T03:18:06.969Z,6.13
2017-12-25T03:20:33.224Z,5.30
2017-12-25T03:23:00.192Z,5.30
2017-12-25T03:25:26.471Z,4.63
2017-12-25T03:27:52.681Z,3.30
2017-12-25T03:30:19.677Z,5.10
2017-12-25T03:32:46.002Z,2.80
2017-12-25T03:35:20.231Z,3.80
2017-12-25T03:37:46.475Z,4.97
2017-12-25T03:40:12.748Z,4.73
2017-12-25T03:42:39.008Z,3.10
2017-12-25T03:45:05.283Z,4.13
2017-12-25T03:47:31.507Z,4.30
2017-12-25T03:49:57.756Z,4.17
2017-12-25T03:52:23.993Z,4.30
2017-12-25T03:54:50.253Z,4.30
2017-12-25T03:57:16.483Z,3.33
2017-12-25T03:59:42.793Z,2.60
2017-12-25T04:02:09.763Z,3.23
2017-12-25T04:04:36.025Z,2.80
2017-12-25T04:07:02.263Z,3.80
2017-12-25T04:09:28.515Z,2.63
2017-12-25T04:11:54.749Z,3.43
2017-12-25T04:14:20.981Z,3.53
2017-12-25T04:16:47.195Z,3.90
2017-12-25T04:19:13.568Z,3.10
2017-12-25T04:21:39.800Z,3.73
2017-12-25T04:24:06.043Z,3.07
2017-12-25T04:26:32.308Z,3.80
2017-12-25T04:28:59.332Z,3.53
2017-12-25T04:31:25.561Z,4.60
2017-12-25T04:33:51.821Z,3.53
2017-12-25T04:36:18.052Z,3.60
2017-12-25T04:38:44.332Z,4.03
2017-12-25T04:41:10.577Z,4.30
2017-12-25T04:43:36.844Z,6.10
2017-12-25T04:46:03.807Z,5.30
2017-12-25T04:48:30.792Z,5.67
2017-12-25T04:50:57.151Z,5.67
2017-12-25T04:53:23.434Z,5.60
2017-12-25T04:55:49.670Z,5.93
2017-12-25T04:58:15.911Z,5.60
2017-12-25T05:00:42.206Z,6.20
2017-12-25T05:03:08.482Z,4.93
2017-12-25T05:05:34.724Z,6.00
2017-12-25T05:08:01.244Z,4.43
2017-12-25T05:10:27.513Z,6.50
2017-12-25T05:12:54.539Z,4.60
2017-12-25T05:15:20.792Z,6.07
2017-12-25T05:17:47.767Z,5.10
2017-12-25T05:20:14.123Z,4.17
2017-12-25T05:22:40.410Z,6.33
2017-12-25T05:25:06.801Z,5.80
2017-12-25T05:27:33.043Z,5.97
2017-12-25T05:29:59.313Z,3.90
2017-12-25T05:32:25.620Z,4.00
2017-12-25T05:34:52.611Z,3.17
2017-12-25T05:37:18.887Z,4.73
2017-12-25T05:39:45.147Z,6.10
2017-12-25T05:42:11.404Z,6.70
2017-12-25T05:44:37.666Z,6.07
2017-12-25T05:47:03.898Z,6.93
2017-12-25T05:49:30.905Z,5.93
2017-12-25T05:51:57.146Z,7.10
2017-12-25T05:54:23.459Z,7.43
2017-12-25T05:56:49.695Z,6.50
2017-12-25T05:59:15.946Z,8.37
2017-12-25T06:01:42.175Z,7.90
2017-12-25T06:04:08.433Z,4.60
2017-12-25T06:06:35.398Z,8.60
2017-12-25T06:09:01.656Z,7.80
2017-12-25T06:11:27.874Z,4.97
2017-12-25T06:13:54.131Z,7.10
2017-12-25T06:16:20.385Z,6.20
2017-12-25T06:18:47.401Z,7.50
2017-12-25T06:21:13.643Z,5.93
2017-12-25T06:23:39.924Z,6.40
2017-12-25T06:26:06.170Z,5.87
2017-12-25T06:28:33.166Z,7.13
2017-12-25T06:31:00.135Z,6.80
2017-12-25T06:33:26.388Z,4.40
2017-12-25T06:35:52.622Z,5.60
2017-12-25T06:38:18.896Z,3.80
2017-12-25T06:40:45.872Z,6.30
2017-12-25T06:43:12.152Z,6.03
2017-12-25T06:45:38.403Z,4.87
2017-12-25T06:48:05.522Z,3.87
2017-12-25T06:50:31.779Z,5.00
2017-12-25T06:52:58.765Z,5.80
2017-12-25T06:55:25.036Z,5.93
2017-12-25T06:57:51.318Z,4.50
2017-12-25T07:00:17.597Z,4.40
2017-12-25T07:02:43.815Z,4.27
2017-12-25T07:05:10.092Z,4.47
2017-12-25T07:07:36.346Z,3.80
2017-12-25T07:10:02.630Z,5.10
2017-12-25T07:12:28.883Z,3.90
2017-12-25T07:14:55.151Z,5.00
2017-12-25T07:17:21.391Z,5.10
2017-12-25T07:19:47.628Z,3.47
2017-12-25T07:22:13.900Z,3.20
2017-12-25T07:24:40.160Z,3.57
2017-12-25T07:27:06.435Z,4.73
2017-12-25T07:29:33.433Z,5.20
2017-12-25T07:31:59.695Z,4.50
2017-12-25T07:34:25.931Z,4.80
2017-12-25T07:36:52.930Z,5.90
2017-12-25T07:39:19.181Z,5.17
2017-12-25T07:41:45.452Z,5.70
2017-12-25T07:44:11.697Z,5.07
2017-12-25T07:46:37.951Z,4.07
2017-12-25T07:49:04.187Z,5.10
2017-12-25T07:51:30.451Z,3.17
2017-12-25T07:53:57.447Z,3.67
2017-12-25T07:56:23.735Z,5.53
2017-12-25T07:58:50.699Z,5.37
2017-12-25T08:01:16.993Z,3.63
2017-12-25T08:03:43.219Z,4.57
2017-12-25T08:06:10.229Z,3.47
2017-12-25T08:08:36.483Z,3.20
2017-12-25T08:11:02.744Z,3.70
2017-12-25T08:13:29.724Z,4.53
2017-12-25T08:15:55.953Z,3.60
2017-12-25T08:18:22.207Z,3.07
2017-12-25T08:20:48.456Z,4.00
2017-12-25T08:25:47.789Z,3.43
2017-12-25T08:28:14.838Z,3.50
2017-12-25T08:30:41.923Z,3.70
2017-12-25T08:33:08.198Z,1.90
2017-12-25T08:35:34.439Z,3.30
2017-12-25T08:38:01.440Z,2.97
2017-12-25T08:40:27.671Z,5.07
2017-12-25T08:42:53.942Z,2.63
2017-12-25T08:45:20.957Z,4.50
2017-12-25T08:47:54.395Z,4.00
2017-12-25T08:50:21.377Z,2.67
2017-12-25T08:52:47.733Z,3.80
2017-12-25T08:55:13.968Z,4.00
2017-12-25T08:57:40.226Z,2.80
2017-12-25T09:00:07.193Z,3.57
2017-12-25T09:02:33.450Z,3.57
2017-12-25T09:04:59.689Z,3.60
2017-12-25T09:07:25.979Z,2.67
2017-12-25T09:09:52.212Z,3.70
2017-12-25T09:12:18.439Z,3.37
2017-12-25T09:14:44.703Z,3.27
2017-12-25T09:17:10.946Z,2.53
2017-12-25T09:19:37.241Z,2.57
2017-12-25T09:22:03.498Z,3.70
2017-12-25T09:24:29.769Z,3.80
2017-12-25T09:27:10.960Z,4.00
2017-12-25T09:29:37.208Z,2.70
2017-12-25T09:32:03.489Z,3.83
2017-12-25T09:34:30.469Z,3.77
2017-12-25T09:36:56.753Z,3.80
2017-12-25T09:39:23.755Z,4.03
2017-12-25T09:41:50.008Z,3.10
2017-12-25T09:44:16.256Z,2.70
2017-12-25T09:46:43.231Z,3.30
2017-12-25T09:49:09.460Z,4.23
2017-12-25T09:51:35.736Z,3.70
2017-12-25T09:54:01.984Z,3.70
2017-12-25T09:56:28.226Z,3.03
2017-12-25T09:58:55.195Z,3.60
2017-12-25T10:01:21.488Z,2.70
2017-12-25T10:03:47.802Z,4.17
2017-12-25T10:06:14.054Z,3.07
2017-12-25T10:08:40.277Z,2.33
2017-12-25T10:11:06.657Z,2.50
2017-12-25T10:13:33.083Z,4.07
2017-12-25T10:15:59.326Z,2.10
2017-12-25T10:18:25.555Z,3.30
2017-12-25T10:20:51.838Z,4.07
2017-12-25T10:23:18.076Z,3.87
2017-12-25T10:25:45.256Z,1.87
2017-12-25T10:28:11.504Z,4.00
2017-12-25T10:30:37.911Z,2.40
2017-12-25T10:33:04.171Z,2.10
2017-12-25T10:35:33.230Z,4.27
2017-12-25T10:37:59.472Z,3.20
2017-12-25T10:40:25.737Z,3.70
2017-12-25T10:42:52.088Z,3.33
2017-12-25T10:45:18.363Z,2.80
2017-12-25T10:47:44.642Z,3.47
2017-12-25T10:50:10.903Z,3.60
2017-12-25T10:52:37.120Z,3.30
2017-12-25T10:55:04.127Z,2.67
2017-12-25T10:57:31.169Z,2.47
2017-12-25T10:59:57.453Z,2.27
2017-12-25T11:02:23.718Z,2.93
2017-12-25T11:04:49.968Z,3.40
2017-12-25T11:07:16.242Z,2.60
2017-12-25T11:09:42.484Z,2.93
2017-12-25T11:12:08.757Z,4.27
2017-12-25T11:14:35.000Z,2.17
2017-12-25T11:17:01.250Z,3.17
2017-12-25T11:19:28.234Z,3.60
2017-12-25T11:21:54.492Z,3.20
2017-12-25T11:24:20.755Z,2.70
2017-12-25T11:26:47.748Z,4.67
2017-12-25T11:29:13.987Z,3.70
2017-12-25T11:31:40.385Z,2.87
2017-12-25T11:34:06.616Z,3.93
2017-12-25T11:36:32.908Z,4.27
2017-12-25T11:38:59.875Z,3.97
2017-12-25T11:41:26.132Z,4.10
2017-12-25T11:43:52.375Z,2.30
2017-12-25T11:46:18.729Z,5.17
2017-12-25T11:48:45.040Z,5.27
2017-12-25T11:51:11.303Z,3.33
2017-12-25T11:53:38.362Z,4.73
2017-12-25T11:56:04.643Z,3.20
2017-12-25T11:58:30.890Z,3.43
2017-12-25T12:00:57.123Z,3.63
2017-12-25T12:03:23.460Z,3.83
2017-12-25T12:05:49.699Z,3.20
2017-12-25T12:08:16.720Z,3.13
2017-12-25T12:10:43.018Z,4.30
2017-12-25T12:13:09.316Z,4.00
2017-12-25T12:15:35.559Z,2.70
2017-12-25T12:18:01.834Z,3.37
2017-12-25T12:20:28.079Z,3.43
2017-12-25T12:22:54.330Z,4.20
2017-12-25T12:25:21.530Z,4.00
2017-12-25T12:27:47.811Z,4.00
2017-12-25T12:30:14.810Z,4.23
2017-12-25T12:32:41.105Z,3.27
2017-12-25T12:35:07.322Z,3.30
2017-12-25T12:37:33.606Z,3.40
2017-12-25T12:39:59.931Z,3.50
2017-12-25T12:42:26.195Z,4.30
2017-12-25T12:44:53.187Z,3.67
2017-12-25T12:47:19.466Z,3.77
2017-12-25T12:49:46.435Z,4.10
2017-12-25T12:52:12.680Z,4.80
2017-12-25T12:54:38.932Z,5.83
2017-12-25T12:57:05.996Z,4.23
2017-12-25T12:59:32.237Z,5.93
2017-12-25T13:01:58.481Z,3.97
2017-12-25T13:04:25.488Z,5.20
2017-12-25T13:06:51.736Z,4.00
2017-12-25T13:09:18.012Z,4.43
2017-12-25T13:11:44.255Z,5.60
2017-12-25T13:14:10.522Z,4.57
2017-12-25T13:16:37.533Z,5.27
2017-12-25T13:19:03.805Z,5.90
2017-12-25T13:21:30.793Z,5.27
2017-12-25T13:23:58.071Z,5.40
2017-12-25T13:26:24.312Z,4.40
2017-12-25T13:28:50.579Z,6.80
2017-12-25T13:31:17.548Z,4.50
2017-12-25T13:33:43.805Z,4.73
2017-12-25T13:36:10.080Z,4.00
2017-12-25T13:38:37.068Z,5.87
2017-12-25T13:41:03.325Z,6.03
2017-12-25T13:43:29.579Z,5.93
2017-12-25T13:45:56.566Z,4.50
2017-12-25T13:48:22.850Z,4.97
2017-12-25T13:50:49.851Z,5.63
2017-12-25T13:53:16.108Z,3.70
2017-12-25T13:58:26.072Z,5.07
2017-12-25T14:00:52.316Z,4.50
2017-12-25T14:03:18.571Z,4.27
2017-12-25T14:05:44.826Z,3.47
2017-12-25T14:08:11.099Z,3.87
2017-12-25T14:10:38.054Z,4.10
2017-12-25T14:13:05.046Z,4.20
2017-12-25T14:15:31.307Z,2.93
2017-12-25T14:17:57.569Z,3.83
2017-12-25T14:20:23.829Z,3.07
2017-12-25T14:22:50.921Z,3.60
2017-12-25T14:25:17.906Z,4.80
2017-12-25T14:27:44.167Z,4.60
2017-12-25T14:30:10.397Z,3.50
2017-12-25T14:32:36.636Z,4.97
2017-12-25T14:35:02.873Z,3.10
2017-12-25T14:37:29.114Z,3.90
2017-12-25T14:39:55.374Z,3.00
2017-12-25T14:42:21.649Z,3.30
2017-12-25T14:44:47.874Z,3.50
2017-12-25T14:47:14.127Z,3.40
2017-12-25T14:49:40.385Z,3.80
2017-12-25T14:52:07.396Z,3.30
2017-12-25T14:54:33.631Z,4.00
2017-12-25T14:56:59.895Z,3.77
2017-12-25T14:59:26.926Z,4.20
2017-12-25T15:01:53.166Z,4.07
2017-12-25T15:04:19.439Z,3.87
2017-12-25T15:06:45.669Z,3.20
2017-12-25T15:09:11.939Z,2.93
2017-12-25T15:11:38.213Z,3.50
2017-12-25T15:14:05.236Z,3.57
2017-12-25T15:16:31.460Z,3.90
2017-12-25T15:18:57.761Z,3.00
2017-12-25T15:21:24.769Z,4.93
2017-12-25T15:23:51.050Z,3.70
2017-12-25T15:26:19.340Z,3.83
2017-12-25T15:28:45.583Z,3.87
2017-12-25T15:31:11.826Z,4.00
2017-12-25T15:33:38.078Z,4.40
2017-12-25T15:36:05.065Z,4.27
2017-12-25T15:38:31.327Z,4.27
2017-12-25T15:40:57.547Z,5.60
2017-12-25T15:43:23.812Z,5.33
2017-12-25T15:45:50.060Z,4.50
2017-12-25T15:48:16.335Z,4.60
2017-12-25T15:50:42.564Z,5.20
2017-12-25T15:53:08.842Z,4.97
2017-12-25T15:55:35.804Z,4.60
2017-12-25T15:58:02.813Z,3.70
2017-12-25T16:00:29.063Z,4.03
2017-12-25T16:02:55.363Z,4.23
2017-12-25T16:05:21.587Z,3.60
2017-12-25T16:07:48.592Z,3.60
2017-12-25T16:10:16.823Z,3.20
2017-12-25T16:12:46.776Z,2.80
2017-12-25T16:15:13.813Z,2.90
2017-12-25T16:17:40.087Z,2.83
2017-12-25T16:20:10.680Z,3.20
2017-12-25T16:22:51.426Z,3.20
2017-12-25T16:25:19.010Z,2.73
2017-12-25T16:31:21.675Z,2.50
2017-12-25T16:33:48.016Z,2.67
2017-12-25T16:36:14.329Z,2.97
2017-12-25T16:38:40.558Z,2.47
2017-12-25T16:41:07.571Z,2.13
2017-12-25T16:43:33.822Z,2.80
2017-12-25T16:46:00.094Z,2.57
2017-12-25T16:48:27.088Z,2.50
2017-12-25T16:50:53.413Z,2.73
2017-12-25T16:53:19.650Z,2.10
2017-12-25T16:55:45.899Z,2.00
2017-12-25T16:58:12.145Z,4.40
2017-12-25T17:00:38.431Z,2.23
2017-12-25T17:03:04.741Z,7.40
2017-12-25T17:05:31.011Z,2.37
2017-12-25T17:07:57.276Z,1.20
2017-12-25T17:10:23.529Z,1.40
2017-12-25T17:12:49.878Z,1.53
2017-12-25T17:15:16.887Z,1.37
2017-12-25T17:17:43.132Z,1.70
2017-12-25T17:20:09.428Z,1.30
2017-12-25T17:22:36.425Z,1.63
2017-12-25T17:25:02.738Z,1.10
2017-12-25T17:27:29.736Z,1.73
2017-12-25T17:29:56.033Z,1.30
2017-12-25T17:32:23.044Z,1.30
2017-12-25T17:34:49.300Z,1.20
2017-12-25T17:37:15.566Z,1.20
2017-12-25T17:39:41.841Z,1.63
2017-12-25T17:42:08.863Z,1.50
2017-12-25T17:44:35.188Z,1.20
2017-12-25T17:47:01.462Z,1.20
2017-12-25T17:49:27.726Z,1.50
2017-12-25T17:51:54.811Z,1.20
2017-12-25T17:54:21.184Z,1.30
2017-12-25T17:56:47.438Z,0.97
2017-12-25T17:59:13.700Z,1.33
2017-12-25T18:01:40.130Z,1.27
2017-12-25T18:04:06.413Z,1.10
2017-12-25T18:06:33.433Z,0.90
2017-12-25T18:09:20.834Z,1.13
2017-12-25T18:11:47.773Z,1.27
2017-12-25T18:14:14.318Z,1.30
2017-12-25T18:16:40.644Z,1.23
2017-12-25T18:19:07.193Z,1.40
2017-12-25T18:21:34.277Z,1.27
2017-12-25T18:24:01.497Z,1.33
2017-12-25T18:26:28.197Z,1.40
2017-12-25T18:28:54.509Z,1.00
2017-12-25T18:31:20.970Z,1.03
2017-12-25T18:33:48.008Z,7.57
2017-12-25T18:36:14.402Z,1.37
2017-12-25T18:38:40.700Z,1.30
2017-12-25T18:41:11.331Z,2.17
2017-12-25T18:43:37.583Z,1.47
2017-12-25T18:46:03.865Z,1.50
2017-12-25T18:48:30.225Z,1.47
2017-12-25T18:50:56.496Z,1.50
2017-12-25T18:53:22.758Z,1.63
2017-12-25T18:55:48.987Z,1.87
2017-12-25T18:58:15.247Z,2.10
2017-12-25T19:00:41.556Z,1.90
2017-12-25T19:03:07.814Z,2.80
2017-12-25T19:05:34.120Z,2.20
2017-12-25T19:08:01.153Z,1.57
2017-12-25T19:10:27.470Z,1.60
2017-12-25T19:12:53.715Z,1.80
2017-12-25T19:15:20.018Z,1.67
2017-12-25T19:17:47.008Z,1.90
2017-12-25T19:20:13.265Z,2.80
2017-12-25T19:22:39.504Z,2.37
2017-12-25T19:25:25.710Z,1.80
2017-12-25T19:28:00.086Z,1.73
2017-12-25T19:30:27.170Z,1.90
2017-12-25T19:32:54.162Z,2.00
2017-12-25T19:35:20.405Z,2.03
2017-12-25T19:37:47.420Z,3.80
2017-12-25T19:40:13.730Z,1.73
2017-12-25T19:42:40.029Z,2.00
2017-12-25T19:45:06.271Z,1.80
2017-12-25T19:47:32.514Z,2.00
2017-12-25T19:49:58.769Z,1.90
2017-12-25T19:52:25.085Z,1.90
2017-12-25T19:54:51.330Z,2.07
2017-12-25T19:57:17.617Z,2.10
2017-12-25T19:59:43.855Z,2.53
2017-12-25T20:02:10.092Z,2.77
2017-12-25T20:04:36.390Z,3.53
2017-12-25T20:07:02.641Z,2.27
2017-12-25T20:09:28.925Z,2.37
2017-12-25T20:11:55.929Z,3.47
2017-12-25T20:14:22.167Z,1.97
2017-12-25T20:16:48.426Z,1.93
2017-12-25T20:19:14.700Z,1.90
2017-12-25T20:21:40.932Z,2.00
2017-12-25T20:24:07.233Z,1.97
2017-12-25T20:26:33.481Z,1.73
2017-12-25T20:28:59.769Z,2.07
2017-12-25T20:31:25.999Z,2.40
2017-12-25T20:33:52.268Z,2.70
2017-12-25T20:36:18.552Z,2.20
2017-12-25T20:38:44.792Z,2.10
2017-12-25T20:41:11.796Z,3.47
2017-12-25T20:43:38.058Z,3.10
2017-12-25T20:46:04.333Z,2.70
2017-12-25T20:48:30.622Z,2.70
2017-12-25T20:50:56.884Z,2.07
2017-12-25T20:53:23.131Z,2.07
2017-12-25T20:55:49.359Z,2.50
2017-12-25T20:58:15.623Z,2.30
2017-12-25T21:00:41.933Z,2.30
2017-12-25T21:03:08.241Z,2.10
2017-12-25T21:05:34.487Z,2.40
2017-12-25T21:08:00.753Z,2.20
2017-12-25T21:10:26.994Z,3.70
2017-12-25T21:12:54.010Z,2.50
2017-12-25T21:15:21.728Z,2.20
2017-12-25T21:17:48.016Z,3.03
2017-12-25T21:20:14.283Z,3.03
2017-12-25T21:22:40.571Z,2.40
2017-12-25T21:25:06.879Z,2.70
2017-12-25T21:27:33.160Z,3.20
2017-12-25T21:30:00.123Z,2.57
2017-12-25T21:32:26.457Z,2.73
2017-12-25T21:34:52.709Z,2.50
2017-12-25T21:37:18.977Z,3.10
2017-12-25T21:39:45.225Z,3.07
2017-12-25T21:42:12.218Z,2.93
2017-12-25T21:44:38.467Z,3.33
2017-12-25T21:47:04.731Z,2.90
2017-12-25T21:49:30.962Z,3.00
2017-12-25T21:51:57.223Z,2.97
2017-12-25T21:54:23.473Z,2.87
2017-12-25T21:56:51.200Z,2.97
2017-12-25T21:59:17.480Z,3.10
2017-12-25T22:01:43.719Z,3.00
2017-12-25T22:04:10.726Z,3.20
2017-12-25T22:06:36.959Z,3.10
2017-12-25T22:09:03.267Z,3.20
2017-12-25T22:11:29.524Z,3.27
2017-12-25T22:13:55.808Z,3.50
2017-12-25T22:16:22.077Z,3.03
2017-12-25T22:18:49.063Z,3.67
2017-12-25T22:21:16.052Z,3.30
2017-12-25T22:23:42.345Z,3.50
2017-12-25T22:26:09.299Z,3.60
2017-12-25T22:28:35.553Z,3.63
2017-12-25T22:31:01.924Z,4.30
2017-12-25T22:33:28.193Z,4.07
2017-12-25T22:35:54.449Z,3.90
2017-12-25T22:38:20.711Z,3.80
2017-12-25T22:40:46.945Z,3.40
2017-12-25T22:43:13.198Z,3.70
2017-12-25T22:45:40.169Z,3.50
2017-12-25T22:48:06.457Z,3.40
2017-12-25T22:50:33.456Z,3.60
2017-12-25T22:52:59.715Z,3.27
2017-12-25T22:55:25.956Z,3.40
2017-12-25T22:57:52.232Z,2.77
2017-12-25T23:00:18.487Z,3.10
2017-12-25T23:02:44.759Z,3.77
2017-12-25T23:05:11.772Z,3.63
2017-12-25T23:07:38.066Z,2.90
2017-12-25T23:10:04.311Z,3.60
2017-12-25T23:12:30.558Z,3.07
2017-12-25T23:14:56.817Z,3.30
2017-12-25T23:17:23.823Z,3.47
2017-12-25T23:19:50.130Z,2.80
2017-12-25T23:22:16.375Z,3.47
2017-12-25T23:24:43.363Z,3.37
2017-12-25T23:27:09.716Z,3.60
2017-12-25T23:29:35.943Z,3.20
2017-12-25T23:32:02.965Z,3.67
2017-12-25T23:34:29.201Z,3.90
2017-12-25T23:36:57.070Z,4.07
2017-12-25T23:39:24.030Z,4.20
2017-12-25T23:41:50.296Z,4.50
2017-12-25T23:44:16.540Z,4.50
2017-12-25T23:46:42.796Z,5.27
2017-12-25T23:49:09.044Z,5.30
2017-12-25T23:51:35.336Z,5.03
2017-12-25T23:54:01.639Z,6.17
2017-12-25T23:56:27.900Z,5.93
2017-12-25T23:58:54.136Z,6.20
